Acton, California
Current Conditions -  °F | °C
As of 12:53 PM on Thursday 23 Oct 2014 (Local Time) from KPMD Reporting Station
Clear Clear  
Wind Chill: 81°   Ceiling: Unl
Heat Index: 81°   Visibility: 10mi
Dew Point: 32°   Wind: 5mph
Humidity: 17%   Direction: 40°NE
Pressure: 30.05"   Gusts: NA
Location:  34.47°N, 118.2°W
Report Text: KPMD 231953Z 04004KT 10SM CLR 27/00 A3005 RMK AO2 SLP156 T02720000 $
Loading
Personal Weather Stations






























Interactive Weather Map
Tropical Storm Tracking
New forecast layout! Learn more

10-Day Weather Forecast

Advertisements
Track Severe Weather on mobile